sensor_id;sensor_type;location;lat;lon;timestamp;pressure;altitude;pressure_sealevel;temperature;humidity
54816;BME280;40715;55.752;37.884;2023-12-14T00:00:11;99582.16;;;25.22;24.03
54816;BME280;40715;55.752;37.884;2023-12-14T00:02:38;99577.38;;;25.37;23.92
54816;BME280;40715;55.752;37.884;2023-12-14T00:05:05;99571.91;;;25.48;23.99
54816;BME280;40715;55.752;37.884;2023-12-14T00:07:33;99567.03;;;25.63;23.87
54816;BME280;40715;55.752;37.884;2023-12-14T00:09:59;99579.59;;;25.74;23.82
54816;BME280;40715;55.752;37.884;2023-12-14T00:12:27;99576.28;;;25.92;23.65
54816;BME280;40715;55.752;37.884;2023-12-14T00:14:53;99580.28;;;25.97;23.29
54816;BME280;40715;55.752;37.884;2023-12-14T00:17:20;99586.19;;;26.03;23.18
54816;BME280;40715;55.752;37.884;2023-12-14T00:19:47;99588.47;;;26.07;23.26
54816;BME280;40715;55.752;37.884;2023-12-14T00:22:14;99588.78;;;26.14;23.14
54816;BME280;40715;55.752;37.884;2023-12-14T00:24:41;99608.13;;;26.19;23.06
54816;BME280;40715;55.752;37.884;2023-12-14T00:27:08;99600.16;;;26.17;23.06
54816;BME280;40715;55.752;37.884;2023-12-14T00:29:35;99592.25;;;26.26;23.20
54816;BME280;40715;55.752;37.884;2023-12-14T00:32:02;99585.72;;;26.28;23.16
54816;BME280;40715;55.752;37.884;2023-12-14T00:34:29;99585.31;;;26.33;23.04
54816;BME280;40715;55.752;37.884;2023-12-14T00:36:56;99588.00;;;26.33;22.83
54816;BME280;40715;55.752;37.884;2023-12-14T00:39:23;99578.06;;;26.33;23.02
54816;BME280;40715;55.752;37.884;2023-12-14T00:41:50;99583.41;;;26.24;22.82
54816;BME280;40715;55.752;37.884;2023-12-14T00:44:17;99590.19;;;26.08;22.83
54816;BME280;40715;55.752;37.884;2023-12-14T00:46:44;99582.00;;;25.98;23.07
54816;BME280;40715;55.752;37.884;2023-12-14T00:49:11;99580.69;;;25.93;23.15
54816;BME280;40715;55.752;37.884;2023-12-14T00:51:38;99589.50;;;25.95;22.99
54816;BME280;40715;55.752;37.884;2023-12-14T00:54:05;99583.84;;;25.98;23.29
54816;BME280;40715;55.752;37.884;2023-12-14T00:56:32;99565.44;;;26.03;23.26
54816;BME280;40715;55.752;37.884;2023-12-14T00:58:59;99574.38;;;26.04;23.23
54816;BME280;40715;55.752;37.884;2023-12-14T01:01:25;99562.72;;;26.03;23.36
54816;BME280;40715;55.752;37.884;2023-12-14T01:03:52;99574.38;;;26.04;22.99
54816;BME280;40715;55.752;37.884;2023-12-14T01:06:19;99575.13;;;26.06;23.18
54816;BME280;40715;55.752;37.884;2023-12-14T01:08:46;99575.81;;;26.08;23.02
54816;BME280;40715;55.752;37.884;2023-12-14T01:11:14;99584.53;;;26.11;23.17
54816;BME280;40715;55.752;37.884;2023-12-14T01:13:41;99575.88;;;26.17;22.95
54816;BME280;40715;55.752;37.884;2023-12-14T01:16:08;99571.50;;;26.26;22.74
54816;BME280;40715;55.752;37.884;2023-12-14T01:18:35;99573.34;;;26.26;22.77
54816;BME280;40715;55.752;37.884;2023-12-14T01:21:02;99567.34;;;26.22;22.54
54816;BME280;40715;55.752;37.884;2023-12-14T01:23:29;99567.09;;;26.25;22.76
54816;BME280;40715;55.752;37.884;2023-12-14T01:25:56;99572.41;;;26.37;22.58
54816;BME280;40715;55.752;37.884;2023-12-14T01:28:23;99570.28;;;26.50;22.51
54816;BME280;40715;55.752;37.884;2023-12-14T01:30:50;99557.66;;;26.60;22.29
54816;BME280;40715;55.752;37.884;2023-12-14T01:33:17;99567.34;;;26.63;22.18
54816;BME280;40715;55.752;37.884;2023-12-14T01:35:44;99558.50;;;26.61;22.20
54816;BME280;40715;55.752;37.884;2023-12-14T01:38:11;99573.00;;;26.50;22.44
54816;BME280;40715;55.752;37.884;2023-12-14T01:40:38;99568.16;;;26.44;22.37
54816;BME280;40715;55.752;37.884;2023-12-14T01:43:08;99575.81;;;26.39;22.55
54816;BME280;40715;55.752;37.884;2023-12-14T01:45:37;99578.97;;;26.44;22.38
54816;BME280;40715;55.752;37.884;2023-12-14T01:48:04;99578.09;;;26.43;22.51
54816;BME280;40715;55.752;37.884;2023-12-14T01:50:32;99576.97;;;26.46;22.36
54816;BME280;40715;55.752;37.884;2023-12-14T01:52:59;99576.69;;;26.49;22.30
54816;BME280;40715;55.752;37.884;2023-12-14T01:55:26;99567.16;;;26.45;22.46
54816;BME280;40715;55.752;37.884;2023-12-14T01:57:53;99569.00;;;26.44;22.38
54816;BME280;40715;55.752;37.884;2023-12-14T02:00:38;99564.59;;;26.43;22.60
54816;BME280;40715;55.752;37.884;2023-12-14T02:03:06;99567.25;;;26.33;22.19
54816;BME280;40715;55.752;37.884;2023-12-14T02:05:33;99567.53;;;26.30;22.39
54816;BME280;40715;55.752;37.884;2023-12-14T02:08:00;99566.50;;;26.22;22.49
54816;BME280;40715;55.752;37.884;2023-12-14T02:10:27;99574.16;;;26.16;22.38
54816;BME280;40715;55.752;37.884;2023-12-14T02:12:54;99570.03;;;26.12;22.67
54816;BME280;40715;55.752;37.884;2023-12-14T02:15:21;99576.84;;;26.16;22.71
54816;BME280;40715;55.752;37.884;2023-12-14T02:17:48;99567.75;;;26.17;22.71
54816;BME280;40715;55.752;37.884;2023-12-14T02:20:15;99563.22;;;26.18;22.47
54816;BME280;40715;55.752;37.884;2023-12-14T02:22:54;99571.06;;;26.21;22.85
54816;BME280;40715;55.752;37.884;2023-12-14T02:25:22;99564.34;;;26.15;22.38
54816;BME280;40715;55.752;37.884;2023-12-14T02:27:50;99569.75;;;26.15;22.68
54816;BME280;40715;55.752;37.884;2023-12-14T02:30:18;99570.19;;;26.21;22.48
54816;BME280;40715;55.752;37.884;2023-12-14T02:32:45;99573.81;;;26.31;22.47
54816;BME280;40715;55.752;37.884;2023-12-14T02:35:12;99572.53;;;26.45;22.50
54816;BME280;40715;55.752;37.884;2023-12-14T02:37:39;99568.75;;;26.57;22.27
54816;BME280;40715;55.752;37.884;2023-12-14T02:40:10;99572.00;;;26.61;22.10
54816;BME280;40715;55.752;37.884;2023-12-14T02:42:37;99571.53;;;26.77;21.90
54816;BME280;40715;55.752;37.884;2023-12-14T02:45:04;99570.25;;;26.71;22.02
54816;BME280;40715;55.752;37.884;2023-12-14T02:47:31;99563.38;;;26.67;22.09
54816;BME280;40715;55.752;37.884;2023-12-14T02:49:59;99561.63;;;26.56;22.06
54816;BME280;40715;55.752;37.884;2023-12-14T02:52:25;99567.97;;;26.35;22.54
54816;BME280;40715;55.752;37.884;2023-12-14T02:54:52;99571.53;;;26.36;22.51
54816;BME280;40715;55.752;37.884;2023-12-14T02:57:19;99572.13;;;26.40;22.57
54816;BME280;40715;55.752;37.884;2023-12-14T02:59:46;99564.44;;;26.45;22.70
54816;BME280;40715;55.752;37.884;2023-12-14T03:02:13;99576.78;;;26.38;22.43
54816;BME280;40715;55.752;37.884;2023-12-14T03:04:40;99580.84;;;26.22;22.70
54816;BME280;40715;55.752;37.884;2023-12-14T03:07:07;99573.31;;;26.16;22.95
54816;BME280;40715;55.752;37.884;2023-12-14T03:09:35;99578.56;;;25.96;23.15
54816;BME280;40715;55.752;37.884;2023-12-14T03:12:02;99578.28;;;25.99;23.04
54816;BME280;40715;55.752;37.884;2023-12-14T03:14:32;99578.44;;;25.98;23.24
54816;BME280;40715;55.752;37.884;2023-12-14T03:17:00;99579.72;;;25.94;23.29
54816;BME280;40715;55.752;37.884;2023-12-14T03:19:27;99582.16;;;25.97;23.07
54816;BME280;40715;55.752;37.884;2023-12-14T03:21:54;99580.16;;;25.99;23.11
54816;BME280;40715;55.752;37.884;2023-12-14T03:24:21;99572.59;;;25.93;23.01
54816;BME280;40715;55.752;37.884;2023-12-14T03:26:48;99580.44;;;25.96;23.14
54816;BME280;40715;55.752;37.884;2023-12-14T03:29:16;99579.59;;;25.95;23.23
54816;BME280;40715;55.752;37.884;2023-12-14T03:31:43;99568.28;;;25.80;22.90
54816;BME280;40715;55.752;37.884;2023-12-14T03:34:11;99568.59;;;25.66;23.51
54816;BME280;40715;55.752;37.884;2023-12-14T03:36:38;99566.31;;;25.61;23.34
54816;BME280;40715;55.752;37.884;2023-12-14T03:39:05;99567.69;;;25.56;23.21
54816;BME280;40715;55.752;37.884;2023-12-14T03:41:33;99570.00;;;25.60;23.52
54816;BME280;40715;55.752;37.884;2023-12-14T03:43:59;99574.84;;;25.66;23.25
54816;BME280;40715;55.752;37.884;2023-12-14T03:46:27;99563.50;;;25.63;23.10
54816;BME280;40715;55.752;37.884;2023-12-14T03:48:54;99561.41;;;25.76;23.29
54816;BME280;40715;55.752;37.884;2023-12-14T03:51:21;99566.03;;;25.86;23.01
54816;BME280;40715;55.752;37.884;2023-12-14T03:53:48;99574.06;;;25.97;23.09
54816;BME280;40715;55.752;37.884;2023-12-14T03:56:15;99566.59;;;26.10;22.68
54816;BME280;40715;55.752;37.884;2023-12-14T03:58:42;99568.59;;;26.18;22.77
54816;BME280;40715;55.752;37.884;2023-12-14T04:01:16;99574.47;;;26.23;22.71
54816;BME280;40715;55.752;37.884;2023-12-14T04:03:44;99563.81;;;26.22;22.58
54816;BME280;40715;55.752;37.884;2023-12-14T04:06:11;99577.16;;;26.23;22.96
54816;BME280;40715;55.752;37.884;2023-12-14T04:08:39;99578.19;;;26.32;22.69
54816;BME280;40715;55.752;37.884;2023-12-14T04:11:07;99578.06;;;26.33;22.76
54816;BME280;40715;55.752;37.884;2023-12-14T04:13:34;99572.66;;;26.33;22.76
54816;BME280;40715;55.752;37.884;2023-12-14T04:16:01;99574.50;;;26.33;22.75
54816;BME280;40715;55.752;37.884;2023-12-14T04:18:28;99576.09;;;26.35;22.96
54816;BME280;40715;55.752;37.884;2023-12-14T04:20:55;99572.25;;;26.38;22.93
54816;BME280;40715;55.752;37.884;2023-12-14T04:23:22;99570.25;;;26.40;22.92
54816;BME280;40715;55.752;37.884;2023-12-14T04:25:49;99573.09;;;26.39;22.98
54816;BME280;40715;55.752;37.884;2023-12-14T04:28:16;99573.56;;;26.44;22.93
54816;BME280;40715;55.752;37.884;2023-12-14T04:30:43;99569.84;;;26.45;22.58
54816;BME280;40715;55.752;37.884;2023-12-14T04:33:10;99563.44;;;26.36;22.64
54816;BME280;40715;55.752;37.884;2023-12-14T04:35:38;99569.91;;;26.24;22.56
54816;BME280;40715;55.752;37.884;2023-12-14T04:38:05;99559.38;;;26.21;22.84
54816;BME280;40715;55.752;37.884;2023-12-14T04:40:32;99561.38;;;26.18;22.76
54816;BME280;40715;55.752;37.884;2023-12-14T04:42:59;99558.50;;;26.10;22.68
54816;BME280;40715;55.752;37.884;2023-12-14T04:45:26;99564.22;;;25.96;22.77
54816;BME280;40715;55.752;37.884;2023-12-14T04:47:53;99564.38;;;25.94;22.70
54816;BME280;40715;55.752;37.884;2023-12-14T04:50:21;99567.41;;;25.80;22.97
54816;BME280;40715;55.752;37.884;2023-12-14T04:52:47;99563.84;;;25.79;22.88
54816;BME280;40715;55.752;37.884;2023-12-14T04:55:14;99558.59;;;25.78;22.77
54816;BME280;40715;55.752;37.884;2023-12-14T04:57:41;99555.03;;;25.77;22.94
54816;BME280;40715;55.752;37.884;2023-12-14T05:00:09;99556.75;;;25.78;22.88
54816;BME280;40715;55.752;37.884;2023-12-14T05:02:36;99555.94;;;25.88;22.87
54816;BME280;40715;55.752;37.884;2023-12-14T05:05:04;99551.84;;;25.93;22.80
54816;BME280;40715;55.752;37.884;2023-12-14T05:07:31;99561.81;;;25.93;22.73
54816;BME280;40715;55.752;37.884;2023-12-14T05:09:58;99559.25;;;25.91;22.36
54816;BME280;40715;55.752;37.884;2023-12-14T05:12:25;99557.94;;;25.86;22.33
54816;BME280;40715;55.752;37.884;2023-12-14T05:14:53;99558.91;;;25.84;22.69
54816;BME280;40715;55.752;37.884;2023-12-14T05:17:20;99564.59;;;25.81;22.70
54816;BME280;40715;55.752;37.884;2023-12-14T05:19:47;99573.03;;;25.67;23.01
54816;BME280;40715;55.752;37.884;2023-12-14T05:22:14;99571.19;;;25.67;23.00
54816;BME280;40715;55.752;37.884;2023-12-14T05:24:41;99573.66;;;25.80;22.84
54816;BME280;40715;55.752;37.884;2023-12-14T05:27:08;99576.78;;;25.76;22.75
54816;BME280;40715;55.752;37.884;2023-12-14T05:29:35;99576.78;;;25.76;22.83
54816;BME280;40715;55.752;37.884;2023-12-14T05:32:02;99569.56;;;25.86;23.00
54816;BME280;40715;55.752;37.884;2023-12-14T05:34:29;99581.28;;;25.96;22.70
54816;BME280;40715;55.752;37.884;2023-12-14T05:36:56;99578.28;;;25.99;22.71
54816;BME280;40715;55.752;37.884;2023-12-14T05:39:23;99568.47;;;25.89;22.76
54816;BME280;40715;55.752;37.884;2023-12-14T05:41:50;99574.22;;;25.74;22.90
54816;BME280;40715;55.752;37.884;2023-12-14T05:44:17;99579.47;;;25.76;23.10
54816;BME280;40715;55.752;37.884;2023-12-14T05:46:44;99582.94;;;25.66;22.92
54816;BME280;40715;55.752;37.884;2023-12-14T05:49:11;99574.63;;;25.70;22.88
54816;BME280;40715;55.752;37.884;2023-12-14T05:51:38;99575.78;;;25.77;22.85
54816;BME280;40715;55.752;37.884;2023-12-14T05:54:05;99578.50;;;25.77;22.73
54816;BME280;40715;55.752;37.884;2023-12-14T05:56:33;99573.25;;;25.85;22.79
54816;BME280;40715;55.752;37.884;2023-12-14T05:59:03;99581.13;;;25.88;22.61
54816;BME280;40715;55.752;37.884;2023-12-14T06:01:30;99584.50;;;25.90;22.48
54816;BME280;40715;55.752;37.884;2023-12-14T06:03:57;99571.44;;;25.86;22.74
54816;BME280;40715;55.752;37.884;2023-12-14T06:06:24;99575.72;;;25.88;22.54
54816;BME280;40715;55.752;37.884;2023-12-14T06:08:51;99581.13;;;25.98;22.50
54816;BME280;40715;55.752;37.884;2023-12-14T06:11:18;99585.78;;;26.07;22.67
54816;BME280;40715;55.752;37.884;2023-12-14T06:13:46;99576.31;;;26.23;22.57
54816;BME280;40715;55.752;37.884;2023-12-14T06:16:13;99580.75;;;26.33;22.25
54816;BME280;40715;55.752;37.884;2023-12-14T06:18:40;99583.94;;;26.48;22.28
54816;BME280;40715;55.752;37.884;2023-12-14T06:21:13;99576.72;;;26.59;21.97
54816;BME280;40715;55.752;37.884;2023-12-14T06:23:40;99589.94;;;26.62;21.67
54816;BME280;40715;55.752;37.884;2023-12-14T06:26:07;99578.44;;;26.60;21.97
54816;BME280;40715;55.752;37.884;2023-12-14T06:28:34;99580.25;;;26.59;21.91
54816;BME280;40715;55.752;37.884;2023-12-14T06:31:01;99591.06;;;26.59;22.01
54816;BME280;40715;55.752;37.884;2023-12-14T06:33:28;99584.25;;;26.55;21.92
54816;BME280;40715;55.752;37.884;2023-12-14T06:35:55;99583.72;;;26.30;22.04
54816;BME280;40715;55.752;37.884;2023-12-14T06:38:22;99583.13;;;26.17;22.08
54816;BME280;40715;55.752;37.884;2023-12-14T06:40:49;99580.47;;;26.27;22.51
54816;BME280;40715;55.752;37.884;2023-12-14T06:43:16;99574.78;;;26.30;21.95
54816;BME280;40715;55.752;37.884;2023-12-14T06:45:43;99599.50;;;26.25;22.16
54816;BME280;40715;55.752;37.884;2023-12-14T06:48:10;99595.00;;;26.05;22.42
54816;BME280;40715;55.752;37.884;2023-12-14T06:50:37;99592.16;;;25.85;22.35
54816;BME280;40715;55.752;37.884;2023-12-14T06:53:04;99603.75;;;25.76;22.54
54816;BME280;40715;55.752;37.884;2023-12-14T06:55:31;99603.47;;;25.79;22.64
54816;BME280;40715;55.752;37.884;2023-12-14T06:57:58;99595.25;;;25.80;22.61
54816;BME280;40715;55.752;37.884;2023-12-14T07:00:25;99597.09;;;25.80;22.76
54816;BME280;40715;55.752;37.884;2023-12-14T07:02:53;99594.53;;;25.78;22.63
54816;BME280;40715;55.752;37.884;2023-12-14T07:05:19;99595.66;;;25.76;22.92
54816;BME280;40715;55.752;37.884;2023-12-14T07:07:47;99591.72;;;25.80;22.68
54816;BME280;40715;55.752;37.884;2023-12-14T07:10:14;99595.47;;;25.67;22.36
54816;BME280;40715;55.752;37.884;2023-12-14T07:12:41;99600.25;;;25.43;22.65
54816;BME280;40715;55.752;37.884;2023-12-14T07:15:08;99600.56;;;25.49;22.56
54816;BME280;40715;55.752;37.884;2023-12-14T07:17:35;99597.88;;;25.49;22.99
54816;BME280;40715;55.752;37.884;2023-12-14T07:20:02;99600.22;;;25.54;22.78
54816;BME280;40715;55.752;37.884;2023-12-14T07:22:30;99598.16;;;25.67;22.80
54816;BME280;40715;55.752;37.884;2023-12-14T07:24:57;99601.63;;;25.79;22.49
54816;BME280;40715;55.752;37.884;2023-12-14T07:27:25;99600.44;;;25.72;22.18
54816;BME280;40715;55.752;37.884;2023-12-14T07:29:52;99593.75;;;25.66;22.34
54816;BME280;40715;55.752;37.884;2023-12-14T07:32:19;99603.28;;;25.49;22.20
54816;BME280;40715;55.752;37.884;2023-12-14T07:34:47;99596.63;;;25.54;22.58
54816;BME280;40715;55.752;37.884;2023-12-14T07:37:14;99598.91;;;25.70;22.44
54816;BME280;40715;55.752;37.884;2023-12-14T07:39:41;99590.31;;;25.86;22.20
54816;BME280;40715;55.752;37.884;2023-12-14T07:42:08;99598.22;;;25.98;22.37
54816;BME280;40715;55.752;37.884;2023-12-14T07:44:35;99605.84;;;25.93;22.09
54816;BME280;40715;55.752;37.884;2023-12-14T07:47:02;99612.19;;;25.82;22.29
54816;BME280;40715;55.752;37.884;2023-12-14T07:49:29;99621.59;;;25.67;22.24
54816;BME280;40715;55.752;37.884;2023-12-14T07:51:56;99602.44;;;25.70;22.24
54816;BME280;40715;55.752;37.884;2023-12-14T07:54:23;99612.38;;;25.70;22.29
54816;BME280;40715;55.752;37.884;2023-12-14T07:56:53;99621.47;;;25.69;22.10
54816;BME280;40715;55.752;37.884;2023-12-14T07:59:20;99613.78;;;25.64;22.24
54816;BME280;40715;55.752;37.884;2023-12-14T08:01:47;99611.31;;;25.40;22.31
54816;BME280;40715;55.752;37.884;2023-12-14T08:04:14;99609.34;;;25.30;22.38
54816;BME280;40715;55.752;37.884;2023-12-14T08:06:41;99611.56;;;25.25;22.45
54816;BME280;40715;55.752;37.884;2023-12-14T08:09:09;99602.53;;;25.15;22.49
54816;BME280;40715;55.752;37.884;2023-12-14T08:11:35;99609.13;;;24.90;22.40
54816;BME280;40715;55.752;37.884;2023-12-14T08:14:02;99609.25;;;24.88;22.71
54816;BME280;40715;55.752;37.884;2023-12-14T08:16:30;99620.50;;;24.93;22.66
54816;BME280;40715;55.752;37.884;2023-12-14T08:18:57;99613.13;;;24.95;22.62
54816;BME280;40715;55.752;37.884;2023-12-14T08:21:24;99617.06;;;25.03;22.63
54816;BME280;40715;55.752;37.884;2023-12-14T08:23:51;99624.06;;;24.83;22.72
54816;BME280;40715;55.752;37.884;2023-12-14T08:26:18;99616.50;;;24.65;23.10
54816;BME280;40715;55.752;37.884;2023-12-14T08:28:45;99612.09;;;24.75;23.38
54816;BME280;40715;55.752;37.884;2023-12-14T08:31:12;99621.50;;;24.81;23.11
54816;BME280;40715;55.752;37.884;2023-12-14T08:33:41;99617.97;;;24.80;23.23
54816;BME280;40715;55.752;37.884;2023-12-14T08:36:15;99608.75;;;24.94;23.01
54816;BME280;40715;55.752;37.884;2023-12-14T08:38:42;99619.81;;;25.12;22.99
54816;BME280;40715;55.752;37.884;2023-12-14T08:41:13;99612.03;;;25.30;22.78
54816;BME280;40715;55.752;37.884;2023-12-14T08:43:41;99607.88;;;25.38;22.78
54816;BME280;40715;55.752;37.884;2023-12-14T08:46:08;99613.91;;;25.30;22.45
54816;BME280;40715;55.752;37.884;2023-12-14T08:48:36;99609.13;;;25.33;22.51
54816;BME280;40715;55.752;37.884;2023-12-14T08:51:05;99610.19;;;25.31;22.61
54816;BME280;40715;55.752;37.884;2023-12-14T08:53:32;99614.94;;;25.06;23.11
54816;BME280;40715;55.752;37.884;2023-12-14T08:55:59;99633.81;;;25.06;22.90
54816;BME280;40715;55.752;37.884;2023-12-14T08:58:26;99627.63;;;25.27;22.73
54816;BME280;40715;55.752;37.884;2023-12-14T09:00:53;99624.41;;;25.44;22.62
54816;BME280;40715;55.752;37.884;2023-12-14T09:03:20;99621.78;;;25.54;22.59
54816;BME280;40715;55.752;37.884;2023-12-14T09:05:47;99622.50;;;25.56;22.44
54816;BME280;40715;55.752;37.884;2023-12-14T09:08:14;99613.81;;;25.53;22.41
54816;BME280;40715;55.752;37.884;2023-12-14T09:10:41;99614.53;;;25.55;22.85
54816;BME280;40715;55.752;37.884;2023-12-14T09:13:08;99618.22;;;25.54;22.91
54816;BME280;40715;55.752;37.884;2023-12-14T09:15:35;99602.44;;;25.49;22.74
54816;BME280;40715;55.752;37.884;2023-12-14T09:18:03;99607.41;;;25.54;22.92
54816;BME280;40715;55.752;37.884;2023-12-14T09:20:30;99617.44;;;25.63;23.03
54816;BME280;40715;55.752;37.884;2023-12-14T09:22:57;99596.44;;;25.66;22.96
54816;BME280;40715;55.752;37.884;2023-12-14T09:25:24;99603.47;;;25.58;22.82
54816;BME280;40715;55.752;37.884;2023-12-14T09:27:52;99595.72;;;25.43;22.86
54816;BME280;40715;55.752;37.884;2023-12-14T09:30:19;99600.47;;;25.51;23.20
54816;BME280;40715;55.752;37.884;2023-12-14T09:32:46;99602.63;;;25.57;22.93
54816;BME280;40715;55.752;37.884;2023-12-14T09:35:13;99598.56;;;25.63;23.24
54816;BME280;40715;55.752;37.884;2023-12-14T09:37:40;99610.66;;;25.69;22.92
54816;BME280;40715;55.752;37.884;2023-12-14T09:40:08;99609.00;;;25.77;23.10
54816;BME280;40715;55.752;37.884;2023-12-14T09:42:38;99603.22;;;25.82;22.50
54816;BME280;40715;55.752;37.884;2023-12-14T09:45:09;99614.16;;;25.80;22.77
54816;BME280;40715;55.752;37.884;2023-12-14T09:47:39;99614.41;;;25.77;22.89
54816;BME280;40715;55.752;37.884;2023-12-14T09:50:07;99621.06;;;25.73;22.51
54816;BME280;40715;55.752;37.884;2023-12-14T09:52:34;99621.19;;;25.72;22.36
54816;BME280;40715;55.752;37.884;2023-12-14T09:55:01;99620.00;;;25.64;22.60
54816;BME280;40715;55.752;37.884;2023-12-14T09:57:30;99622.09;;;25.61;22.54
54816;BME280;40715;55.752;37.884;2023-12-14T09:59:57;99621.53;;;25.78;22.26
54816;BME280;40715;55.752;37.884;2023-12-14T10:02:26;99621.84;;;25.85;22.03
54816;BME280;40715;55.752;37.884;2023-12-14T10:04:56;99612.63;;;25.66;22.24
54816;BME280;40715;55.752;37.884;2023-12-14T10:07:24;99618.25;;;25.42;22.86
54816;BME280;40715;55.752;37.884;2023-12-14T10:09:51;99613.75;;;25.43;22.90
54816;BME280;40715;55.752;37.884;2023-12-14T10:12:19;99610.00;;;25.34;22.89
54816;BME280;40715;55.752;37.884;2023-12-14T10:15:00;99611.13;;;25.53;22.82
54816;BME280;40715;55.752;37.884;2023-12-14T10:17:30;99615.44;;;25.44;23.01
54816;BME280;40715;55.752;37.884;2023-12-14T10:19:59;99617.81;;;25.37;23.01
54816;BME280;40715;55.752;37.884;2023-12-14T10:22:31;99612.50;;;25.47;23.15
54816;BME280;40715;55.752;37.884;2023-12-14T10:24:59;99609.69;;;25.48;23.40
54816;BME280;40715;55.752;37.884;2023-12-14T10:27:31;99594.66;;;25.35;23.45
54816;BME280;40715;55.752;37.884;2023-12-14T10:29:59;99599.53;;;25.29;23.61
54816;BME280;40715;55.752;37.884;2023-12-14T10:32:26;99601.91;;;25.34;23.74
54816;BME280;40715;55.752;37.884;2023-12-14T10:34:53;99585.13;;;25.52;23.77
54816;BME280;40715;55.752;37.884;2023-12-14T10:37:21;99582.03;;;25.56;23.62
54816;BME280;40715;55.752;37.884;2023-12-14T10:39:49;99588.88;;;25.39;23.61
54816;BME280;40715;55.752;37.884;2023-12-14T10:42:18;99600.91;;;25.35;23.88
54816;BME280;40715;55.752;37.884;2023-12-14T10:44:50;99590.84;;;25.37;23.73
54816;BME280;40715;55.752;37.884;2023-12-14T10:47:22;99587.28;;;25.37;24.01
54816;BME280;40715;55.752;37.884;2023-12-14T10:49:50;99583.59;;;25.38;23.96
54816;BME280;40715;55.752;37.884;2023-12-14T10:52:19;99573.59;;;25.49;23.93
54816;BME280;40715;55.752;37.884;2023-12-14T10:54:49;99577.97;;;25.62;23.78
54816;BME280;40715;55.752;37.884;2023-12-14T10:57:19;99575.59;;;25.69;23.45
54816;BME280;40715;55.752;37.884;2023-12-14T10:59:49;99572.34;;;25.75;23.71
54816;BME280;40715;55.752;37.884;2023-12-14T11:02:17;99570.69;;;25.83;23.98
54816;BME280;40715;55.752;37.884;2023-12-14T11:04:58;99563.34;;;26.07;23.45
54816;BME280;40715;55.752;37.884;2023-12-14T11:07:53;99559.56;;;26.29;23.42
54816;BME280;40715;55.752;37.884;2023-12-14T11:10:29;99565.28;;;26.35;23.22
54816;BME280;40715;55.752;37.884;2023-12-14T11:13:05;99562.63;;;26.45;22.91
54816;BME280;40715;55.752;37.884;2023-12-14T11:15:33;99547.41;;;26.54;22.93
54816;BME280;40715;55.752;37.884;2023-12-14T11:23:26;99549.31;;;26.23;23.18
54816;BME280;40715;55.752;37.884;2023-12-14T11:25:56;99546.91;;;26.29;23.21
54816;BME280;40715;55.752;37.884;2023-12-14T11:28:29;99559.28;;;26.32;23.31
54816;BME280;40715;55.752;37.884;2023-12-14T11:30:57;99553.47;;;26.27;23.09
54816;BME280;40715;55.752;37.884;2023-12-14T11:33:25;99555.75;;;26.00;23.47
54816;BME280;40715;55.752;37.884;2023-12-14T11:35:54;99558.13;;;25.94;23.48
54816;BME280;40715;55.752;37.884;2023-12-14T11:38:21;99559.41;;;25.99;23.52
54816;BME280;40715;55.752;37.884;2023-12-14T11:40:50;99570.19;;;25.90;23.51
54816;BME280;40715;55.752;37.884;2023-12-14T11:43:17;99573.03;;;25.46;23.98
54816;BME280;40715;55.752;37.884;2023-12-14T11:45:48;99564.47;;;25.29;24.31
54816;BME280;40715;55.752;37.884;2023-12-14T11:48:15;99569.00;;;25.08;24.72
54816;BME280;40715;55.752;37.884;2023-12-14T11:50:43;99550.09;;;25.19;24.89
54816;BME280;40715;55.752;37.884;2023-12-14T11:53:11;99551.66;;;25.22;24.44
54816;BME280;40715;55.752;37.884;2023-12-14T11:55:40;99554.59;;;24.97;24.65
54816;BME280;40715;55.752;37.884;2023-12-14T11:58:08;99555.31;;;24.67;24.88
54816;BME280;40715;55.752;37.884;2023-12-14T12:00:35;99550.66;;;24.46;25.14
54816;BME280;40715;55.752;37.884;2023-12-14T12:05:44;99557.25;;;24.54;25.93
54816;BME280;40715;55.752;37.884;2023-12-14T12:08:13;99561.78;;;24.76;25.79
54816;BME280;40715;55.752;37.884;2023-12-14T12:10:42;99565.47;;;25.07;25.36
54816;BME280;40715;55.752;37.884;2023-12-14T12:13:14;99562.09;;;25.47;25.17
54816;BME280;40715;55.752;37.884;2023-12-14T12:15:41;99571.44;;;25.64;25.32
54816;BME280;40715;55.752;37.884;2023-12-14T12:18:10;99580.19;;;25.78;24.74
54816;BME280;40715;55.752;37.884;2023-12-14T12:20:38;99581.63;;;25.82;24.99
54816;BME280;40715;55.752;37.884;2023-12-14T12:23:05;99584.88;;;25.76;24.79
54816;BME280;40715;55.752;37.884;2023-12-14T12:25:33;99579.19;;;25.79;24.66
54816;BME280;40715;55.752;37.884;2023-12-14T12:28:02;99581.88;;;26.00;25.05
54816;BME280;40715;55.752;37.884;2023-12-14T12:30:30;99578.47;;;26.29;24.29
54816;BME280;40715;55.752;37.884;2023-12-14T12:32:57;99588.06;;;26.43;23.87
54816;BME280;40715;55.752;37.884;2023-12-14T12:35:25;99574.41;;;26.44;24.10
54816;BME280;40715;55.752;37.884;2023-12-14T12:37:53;99572.41;;;26.46;23.68
54816;BME280;40715;55.752;37.884;2023-12-14T12:40:22;99567.00;;;26.46;23.75
54816;BME280;40715;55.752;37.884;2023-12-14T12:42:49;99576.84;;;26.57;24.16
54816;BME280;40715;55.752;37.884;2023-12-14T12:45:17;99577.16;;;26.64;24.46
54816;BME280;40715;55.752;37.884;2023-12-14T12:47:55;99565.84;;;26.80;24.64
54816;BME280;40715;55.752;37.884;2023-12-14T12:50:22;99572.22;;;26.79;24.79
54816;BME280;40715;55.752;37.884;2023-12-14T12:52:51;99583.25;;;27.16;25.18
54816;BME280;40715;55.752;37.884;2023-12-14T12:55:18;99577.03;;;28.02;24.32
54816;BME280;40715;55.752;37.884;2023-12-14T12:57:46;99568.16;;;28.10;24.11
54816;BME280;40715;55.752;37.884;2023-12-14T13:00:14;99579.09;;;28.18;24.46